createdAt,value
2023-01-15T00:05:03.684Z,100635.06
2023-01-15T00:10:07.281Z,100614.56
2023-01-15T00:15:10.407Z,100638.13
2023-01-15T00:20:13.563Z,100648.25
2023-01-15T00:25:34.447Z,100651.16
2023-01-15T00:30:41.747Z,100665.91
2023-01-15T00:35:44.739Z,100661.53
2023-01-15T00:40:53.214Z,100664.22
2023-01-15T00:45:55.916Z,100667.59
2023-01-15T00:50:58.823Z,100679.81
2023-01-15T00:56:01.626Z,100659.09
2023-01-15T01:01:04.752Z,100684.66
2023-01-15T01:06:08.086Z,100693.44
2023-01-15T01:11:12.345Z,100700.16
2023-01-15T01:16:31.030Z,100710.94
2023-01-15T01:21:33.886Z,100708.63
2023-01-15T01:26:36.512Z,100719.59
2023-01-15T01:31:39.524Z,100737.06
2023-01-15T01:36:44.287Z,100746.25
2023-01-15T01:41:47.898Z,100749.22
2023-01-15T01:46:51.057Z,100762.25
2023-01-15T01:51:59.303Z,100767.38
2023-01-15T01:57:02.963Z,100776.53
2023-01-15T02:02:06.643Z,100778.53
2023-01-15T02:07:09.364Z,100779.56
2023-01-15T02:12:29.298Z,100784.53
2023-01-15T02:18:10.901Z,100791.22
2023-01-15T02:23:28.724Z,100798.50
2023-01-15T02:28:36.019Z,100749.38
2023-01-15T02:33:42.105Z,100812.41
2023-01-15T02:38:48.473Z,100822.38
2023-01-15T02:43:55.124Z,100834.25
2023-01-15T02:49:01.280Z,100842.56
2023-01-15T02:54:12.946Z,100847.69
2023-01-15T02:59:23.839Z,100863.41
2023-01-15T03:04:45.461Z,100870.81
2023-01-15T03:09:48.695Z,100877.63
2023-01-15T03:15:11.760Z,100875.75
2023-01-15T03:20:24.722Z,100885.06
2023-01-15T03:25:31.509Z,100896.03
2023-01-15T03:30:34.421Z,100908.56
2023-01-15T03:35:58.953Z,100909.28
2023-01-15T03:41:23.369Z,100915.78
2023-01-15T03:46:50.729Z,100919.97
2023-01-15T03:52:08.105Z,100909.50
2023-01-15T03:57:20.389Z,100919.31
2023-01-15T04:02:25.276Z,100932.50
2023-01-15T04:07:28.814Z,100919.97
2023-01-15T04:12:34.365Z,100933.53
2023-01-15T04:17:38.974Z,100940.63
2023-01-15T04:22:41.959Z,100946.59
2023-01-15T04:27:44.714Z,100952.38
2023-01-15T04:32:51.234Z,100938.13
2023-01-15T04:37:58.108Z,100961.06
2023-01-15T04:43:19.293Z,100977.31
2023-01-15T04:48:22.047Z,100970.56
2023-01-15T04:53:26.532Z,100991.47
2023-01-15T04:58:29.463Z,100985.63
2023-01-15T05:03:32.421Z,100993.88
2023-01-15T05:08:35.276Z,100988.53
2023-01-15T05:13:38.163Z,101015.00
2023-01-15T05:18:41.927Z,101002.84
2023-01-15T05:23:44.865Z,101008.47
2023-01-15T05:28:47.984Z,101022.22
2023-01-15T05:33:51.244Z,101021.03
2023-01-15T05:38:54.798Z,101032.09
2023-01-15T05:44:01.206Z,101017.66
2023-01-15T05:49:08.514Z,101032.41
2023-01-15T05:54:25.879Z,101045.84
2023-01-15T05:59:30.534Z,101019.13
2023-01-15T06:04:33.221Z,101043.69
2023-01-15T06:09:35.936Z,101047.81
2023-01-15T06:14:38.638Z,101059.97
2023-01-15T06:19:41.430Z,101072.81
2023-01-15T06:24:44.066Z,101072.03
2023-01-15T06:29:46.735Z,101074.75
2023-01-15T06:34:50.489Z,101085.72
2023-01-15T06:39:53.201Z,101092.03
2023-01-15T06:45:14.337Z,101093.41
2023-01-15T06:50:17.334Z,101081.97
2023-01-15T06:55:20.103Z,101084.81
2023-01-15T07:00:22.821Z,101103.50
2023-01-15T07:05:25.528Z,101113.44
2023-01-15T07:10:28.226Z,101110.06
2023-01-15T07:15:31.559Z,101099.97
2023-01-15T07:20:34.283Z,101111.50
2023-01-15T07:25:37.925Z,101110.47
2023-01-15T07:30:40.620Z,101108.81
2023-01-15T07:35:43.349Z,101104.94
2023-01-15T07:41:06.045Z,101120.41
2023-01-15T07:46:29.587Z,101132.69
2023-01-15T07:51:32.217Z,101131.81
2023-01-15T07:56:34.877Z,101146.00
2023-01-15T08:01:37.700Z,101150.31
2023-01-15T08:06:40.502Z,101148.38
2023-01-15T08:12:01.699Z,101160.09
2023-01-15T08:17:07.119Z,101153.34
2023-01-15T08:22:11.153Z,101157.81
2023-01-15T08:27:14.369Z,101162.25
2023-01-15T08:32:17.116Z,101170.41
2023-01-15T08:37:19.760Z,101186.66
2023-01-15T08:42:23.012Z,101200.22
2023-01-15T08:47:25.711Z,101212.84
2023-01-15T08:52:28.541Z,101216.69
2023-01-15T08:57:31.294Z,101217.06
2023-01-15T09:02:33.984Z,101216.81
2023-01-15T09:07:37.636Z,101229.25
2023-01-15T09:12:40.369Z,101240.94
2023-01-15T09:17:43.330Z,101227.19
2023-01-15T09:22:46.431Z,101252.50
2023-01-15T09:27:50.323Z,101259.28
2023-01-15T09:32:53.013Z,101270.88
2023-01-15T09:37:55.836Z,101290.22
2023-01-15T09:43:05.695Z,101295.72
2023-01-15T09:48:47.360Z,101306.19
2023-01-15T09:53:51.557Z,101331.56
2023-01-15T09:58:55.082Z,101339.41
2023-01-15T10:04:07.247Z,101353.09
2023-01-15T10:09:17.908Z,101342.53
2023-01-15T10:14:43.703Z,101349.09
2023-01-15T10:19:46.405Z,101366.59
2023-01-15T10:24:58.393Z,101352.25
2023-01-15T10:30:20.312Z,101357.41
2023-01-15T10:35:35.135Z,101374.44
2023-01-15T10:40:52.039Z,101389.84
2023-01-15T10:45:58.095Z,101395.69
2023-01-15T10:51:04.798Z,101398.91
2023-01-15T10:56:30.399Z,101411.13
2023-01-15T11:01:33.247Z,101416.06
2023-01-15T11:06:36.094Z,101422.78
2023-01-15T11:12:00.636Z,101419.09
2023-01-15T11:17:09.686Z,101408.28
2023-01-15T11:22:15.272Z,101438.91
2023-01-15T11:27:20.896Z,101462.97
2023-01-15T11:32:36.650Z,101463.88
2023-01-15T11:37:39.497Z,101455.38
2023-01-15T11:43:08.572Z,101461.38
2023-01-15T11:48:41.518Z,101449.19
2023-01-15T11:53:52.408Z,101460.31
2023-01-15T11:58:57.042Z,101444.56
2023-01-15T12:04:02.217Z,101485.28
2023-01-15T12:09:14.772Z,101493.06
2023-01-15T12:14:45.870Z,101506.91
2023-01-15T12:20:13.070Z,101508.13
2023-01-15T12:25:18.540Z,101524.44
2023-01-15T12:30:32.988Z,101534.50
2023-01-15T12:35:42.233Z,101550.31
2023-01-15T12:40:49.275Z,101554.34
2023-01-15T12:45:54.475Z,101550.13
2023-01-15T12:51:04.871Z,101552.06
2023-01-15T12:56:10.546Z,101550.84
2023-01-15T13:01:31.506Z,101554.19
2023-01-15T13:06:35.708Z,101548.00
2023-01-15T13:11:38.441Z,101548.00
2023-01-15T13:16:58.369Z,101557.19
2023-01-15T13:22:06.983Z,101555.44
2023-01-15T13:27:47.577Z,101561.97
2023-01-15T13:33:01.665Z,101563.75
2023-01-15T13:38:06.361Z,101563.59
2023-01-15T13:43:40.809Z,101564.13
2023-01-15T13:48:48.187Z,101554.91
2023-01-15T13:53:51.201Z,101566.06
2023-01-15T13:58:56.658Z,101569.59
2023-01-15T14:04:12.728Z,101567.13
2023-01-15T14:09:24.336Z,101575.28
2023-01-15T14:15:04.312Z,101584.16
2023-01-15T14:20:44.900Z,101571.38
2023-01-15T14:26:05.754Z,101588.91
2023-01-15T14:31:39.394Z,101599.91
2023-01-15T14:36:57.806Z,101595.09
2023-01-15T14:42:26.286Z,101591.56
2023-01-15T14:47:54.907Z,101583.59
2023-01-15T14:53:45.278Z,101608.91
2023-01-15T14:59:05.334Z,101612.31
2023-01-15T15:04:45.818Z,101621.88
2023-01-15T15:10:14.057Z,101638.66
2023-01-15T15:15:25.991Z,101628.06
2023-01-15T15:20:37.791Z,101625.19
2023-01-15T15:25:40.626Z,101633.03
2023-01-15T15:30:45.705Z,101620.25
2023-01-15T15:35:55.105Z,101607.47
2023-01-15T15:41:02.409Z,101615.28
2023-01-15T15:46:24.179Z,101639.22
2023-01-15T15:51:36.185Z,101628.94
2023-01-15T15:56:41.317Z,101645.75
2023-01-15T16:01:45.243Z,101641.13
2023-01-15T16:06:49.266Z,101628.91
2023-01-15T16:11:53.165Z,101637.25
2023-01-15T16:16:55.875Z,101641.16
2023-01-15T16:21:58.910Z,101654.75
2023-01-15T16:27:13.405Z,101658.16
2023-01-15T16:32:24.716Z,101648.78
2023-01-15T16:37:32.620Z,101665.25
2023-01-15T16:42:38.025Z,101663.84
2023-01-15T16:47:40.874Z,101670.38
2023-01-15T16:52:52.482Z,101653.19
2023-01-15T16:58:14.990Z,101672.84
2023-01-15T17:03:23.151Z,101664.19
2023-01-15T17:08:40.305Z,101676.06
2023-01-15T17:13:43.268Z,101662.06
2023-01-15T17:18:46.832Z,101676.25
2023-01-15T17:23:51.289Z,101681.91
2023-01-15T17:28:53.997Z,101673.78
2023-01-15T17:34:01.433Z,101681.22
2023-01-15T17:39:04.553Z,101679.41
2023-01-15T17:44:07.330Z,101685.44
2023-01-15T17:49:10.060Z,101701.59
2023-01-15T17:54:32.660Z,101683.16
2023-01-15T17:59:53.673Z,101697.91
2023-01-15T18:05:31.733Z,101704.63
2023-01-15T18:10:34.925Z,101695.38
2023-01-15T18:15:37.623Z,101706.91
2023-01-15T18:20:40.461Z,101695.41
2023-01-15T18:25:46.496Z,101694.69
2023-01-15T18:30:49.625Z,101697.16
2023-01-15T18:36:02.566Z,101697.50
2023-01-15T18:41:32.465Z,101700.03
2023-01-15T18:46:43.901Z,101691.66
2023-01-15T18:52:06.684Z,101704.09
2023-01-15T18:57:09.302Z,101700.72
2023-01-15T19:02:13.938Z,101704.09
2023-01-15T19:07:17.366Z,101690.78
2023-01-15T19:12:20.472Z,101699.31
2023-01-15T19:17:43.169Z,101696.81
2023-01-15T19:23:05.301Z,101685.50
2023-01-15T19:28:09.781Z,101687.09
2023-01-15T19:33:12.417Z,101698.78
2023-01-15T19:38:16.887Z,101698.97
2023-01-15T19:43:37.938Z,101695.75
2023-01-15T19:48:59.027Z,101683.69
2023-01-15T19:54:04.413Z,101689.72
2023-01-15T19:59:08.390Z,101694.50
2023-01-15T20:04:11.002Z,101697.56
2023-01-15T20:09:15.244Z,101703.56
2023-01-15T20:14:17.956Z,101703.56
2023-01-15T20:19:20.632Z,101711.91
2023-01-15T20:24:23.467Z,101716.34
2023-01-15T20:29:26.272Z,101713.47
2023-01-15T20:34:31.136Z,101713.47
2023-01-15T20:39:34.395Z,101711.38
2023-01-15T20:44:54.996Z,101711.38
2023-01-15T20:49:57.715Z,101701.78
2023-01-15T20:55:00.564Z,101708.16
2023-01-15T21:00:05.339Z,101707.63
2023-01-15T21:05:08.654Z,101705.00
2023-01-15T21:10:14.619Z,101707.81
2023-01-15T21:15:17.510Z,101708.88
2023-01-15T21:20:20.459Z,101714.38
2023-01-15T21:25:23.160Z,101716.16
2023-01-15T21:30:26.145Z,101719.16
2023-01-15T21:35:28.976Z,101721.63
2023-01-15T21:40:31.617Z,101720.88
2023-01-15T21:45:34.333Z,101714.47
2023-01-15T21:50:37.696Z,101732.56
2023-01-15T21:55:40.705Z,101724.25
2023-01-15T22:00:43.474Z,101718.41
2023-01-15T22:05:46.287Z,101723.19
2023-01-15T22:10:50.225Z,101723.38
2023-01-15T22:15:56.095Z,101713.44
2023-01-15T22:21:03.192Z,101710.25
2023-01-15T22:26:05.975Z,101709.19
2023-01-15T22:31:08.663Z,101716.63
2023-01-15T22:36:14.386Z,101705.13
2023-01-15T22:41:37.972Z,101707.44
2023-01-15T22:46:40.721Z,101702.47
2023-01-15T22:51:43.914Z,101702.66
2023-01-15T22:56:47.348Z,101695.56
2023-01-15T23:01:50.121Z,101682.25
2023-01-15T23:06:53.363Z,101695.91
2023-01-15T23:11:56.139Z,101684.03
2023-01-15T23:16:58.899Z,101692.53
2023-01-15T23:22:01.682Z,101709.69
2023-01-15T23:27:04.473Z,101696.56
2023-01-15T23:32:07.172Z,101702.41
2023-01-15T23:37:09.922Z,101702.75
2023-01-15T23:42:31.088Z,101696.75
2023-01-15T23:47:34.010Z,101709.28
2023-01-15T23:52:36.703Z,101692.47
2023-01-15T23:57:39.389Z,101682.69
